sensor_id;sensor_type;location;lat;lon;timestamp;pressure;altitude;pressure_sealevel;temperature;humidity
44044;BME280;29709;52.396;16.796;2022-10-16T00:01:14;101482.71;;;15.05;84.34
44044;BME280;29709;52.396;16.796;2022-10-16T00:04:17;101473.73;;;15.03;84.15
44044;BME280;29709;52.396;16.796;2022-10-16T00:07:20;101465.73;;;15.08;83.77
44044;BME280;29709;52.396;16.796;2022-10-16T00:10:23;101461.57;;;15.12;84.47
44044;BME280;29709;52.396;16.796;2022-10-16T00:13:26;101463.78;;;15.17;83.62
44044;BME280;29709;52.396;16.796;2022-10-16T00:16:30;101461.88;;;15.17;83.93
44044;BME280;29709;52.396;16.796;2022-10-16T00:19:33;101476.39;;;15.19;83.73
44044;BME280;29709;52.396;16.796;2022-10-16T00:23:04;101471.59;;;15.13;84.23
44044;BME280;29709;52.396;16.796;2022-10-16T00:26:11;101478.66;;;15.16;84.29
44044;BME280;29709;52.396;16.796;2022-10-16T00:29:15;101481.39;;;15.24;84.08
44044;BME280;29709;52.396;16.796;2022-10-16T00:32:19;101482.56;;;15.29;84.14
44044;BME280;29709;52.396;16.796;2022-10-16T00:35:22;101488.62;;;15.33;83.72
44044;BME280;29709;52.396;16.796;2022-10-16T00:38:25;101490.53;;;15.33;84.53
44044;BME280;29709;52.396;16.796;2022-10-16T00:41:30;101490.34;;;15.34;84.08
44044;BME280;29709;52.396;16.796;2022-10-16T00:48:13;101483.93;;;15.34;84.10
44044;BME280;29709;52.396;16.796;2022-10-16T00:51:19;101476.10;;;15.37;84.16
44044;BME280;29709;52.396;16.796;2022-10-16T00:54:29;101485.76;;;15.41;84.28
44044;BME280;29709;52.396;16.796;2022-10-16T00:57:33;101485.23;;;15.46;84.01
44044;BME280;29709;52.396;16.796;2022-10-16T01:00:36;101488.19;;;15.44;84.45
44044;BME280;29709;52.396;16.796;2022-10-16T01:03:39;101481.60;;;15.45;84.32
44044;BME280;29709;52.396;16.796;2022-10-16T01:10:34;101492.79;;;15.52;84.25
44044;BME280;29709;52.396;16.796;2022-10-16T01:13:43;101499.70;;;15.56;83.45
44044;BME280;29709;52.396;16.796;2022-10-16T01:23:59;101481.69;;;15.60;84.23
44044;BME280;29709;52.396;16.796;2022-10-16T01:30:21;101478.29;;;15.73;84.51
44044;BME280;29709;52.396;16.796;2022-10-16T01:36:48;101491.42;;;15.79;83.84
44044;BME280;29709;52.396;16.796;2022-10-16T01:39:55;101492.76;;;15.83;83.45
44044;BME280;29709;52.396;16.796;2022-10-16T01:43:08;101500.21;;;15.82;83.60
44044;BME280;29709;52.396;16.796;2022-10-16T01:46:14;101503.37;;;15.79;83.55
44044;BME280;29709;52.396;16.796;2022-10-16T01:49:21;101500.41;;;15.81;83.66
44044;BME280;29709;52.396;16.796;2022-10-16T01:52:27;101505.95;;;15.81;83.68
44044;BME280;29709;52.396;16.796;2022-10-16T01:55:35;101512.01;;;15.84;83.42
44044;BME280;29709;52.396;16.796;2022-10-16T01:58:47;101510.77;;;15.87;83.62
44044;BME280;29709;52.396;16.796;2022-10-16T02:01:55;101494.68;;;15.82;83.49
44044;BME280;29709;52.396;16.796;2022-10-16T02:05:08;101497.63;;;15.81;83.17
44044;BME280;29709;52.396;16.796;2022-10-16T02:08:13;101500.59;;;15.79;83.61
44044;BME280;29709;52.396;16.796;2022-10-16T02:11:42;101511.40;;;15.74;83.57
44044;BME280;29709;52.396;16.796;2022-10-16T02:14:45;101513.46;;;15.72;83.71
44044;BME280;29709;52.396;16.796;2022-10-16T02:17:48;101517.09;;;15.73;83.89
44044;BME280;29709;52.396;16.796;2022-10-16T02:21:00;101516.08;;;15.74;83.44
44044;BME280;29709;52.396;16.796;2022-10-16T02:24:12;101513.12;;;15.75;84.20
44044;BME280;29709;52.396;16.796;2022-10-16T02:30:57;101502.70;;;15.77;83.81
44044;BME280;29709;52.396;16.796;2022-10-16T02:33:52;101498.01;;;15.78;83.97
44044;BME280;29709;52.396;16.796;2022-10-16T02:36:59;101506.52;;;15.76;83.96
44044;BME280;29709;52.396;16.796;2022-10-16T02:40:03;101503.75;;;15.76;84.06
44044;BME280;29709;52.396;16.796;2022-10-16T02:43:33;101512.93;;;15.77;84.02
44044;BME280;29709;52.396;16.796;2022-10-16T02:46:36;101511.20;;;15.76;84.02
44044;BME280;29709;52.396;16.796;2022-10-16T02:49:39;101511.20;;;15.76;84.54
44044;BME280;29709;52.396;16.796;2022-10-16T02:52:42;101515.99;;;15.82;84.05
44044;BME280;29709;52.396;16.796;2022-10-16T02:55:45;101509.77;;;15.80;84.24
44044;BME280;29709;52.396;16.796;2022-10-16T02:58:48;101515.99;;;15.82;84.32
44044;BME280;29709;52.396;16.796;2022-10-16T03:01:51;101519.62;;;15.82;84.45
44044;BME280;29709;52.396;16.796;2022-10-16T03:04:54;101517.23;;;15.79;84.01
44044;BME280;29709;52.396;16.796;2022-10-16T03:07:57;101518.95;;;15.80;84.18
44044;BME280;29709;52.396;16.796;2022-10-16T03:11:03;101520.67;;;15.81;83.94
44044;BME280;29709;52.396;16.796;2022-10-16T03:14:32;101520.86;;;15.80;84.56
44044;BME280;29709;52.396;16.796;2022-10-16T03:17:35;101509.59;;;15.81;84.83
44044;BME280;29709;52.396;16.796;2022-10-16T03:20:38;101508.72;;;15.81;84.73
44044;BME280;29709;52.396;16.796;2022-10-16T03:23:41;101523.45;;;15.81;84.83
44044;BME280;29709;52.396;16.796;2022-10-16T03:26:44;101524.12;;;15.83;84.58
44044;BME280;29709;52.396;16.796;2022-10-16T03:29:47;101519.46;;;15.84;84.66
44044;BME280;29709;52.396;16.796;2022-10-16T03:32:49;101531.41;;;15.84;84.58
44044;BME280;29709;52.396;16.796;2022-10-16T03:35:56;101529.49;;;15.85;83.82
44044;BME280;29709;52.396;16.796;2022-10-16T03:38:59;101531.41;;;15.84;84.27
44044;BME280;29709;52.396;16.796;2022-10-16T03:42:02;101531.22;;;15.86;84.51
44044;BME280;29709;52.396;16.796;2022-10-16T03:45:31;101535.90;;;15.85;84.49
44044;BME280;29709;52.396;16.796;2022-10-16T03:48:34;101542.98;;;15.88;84.92
44044;BME280;29709;52.396;16.796;2022-10-16T03:51:37;101541.07;;;15.88;84.65
44044;BME280;29709;52.396;16.796;2022-10-16T03:54:40;101545.88;;;15.95;84.38
44044;BME280;29709;52.396;16.796;2022-10-16T03:57:43;101553.30;;;15.94;84.30
44044;BME280;29709;52.396;16.796;2022-10-16T04:00:46;101551.59;;;15.93;84.14
44044;BME280;29709;52.396;16.796;2022-10-16T04:03:52;101551.77;;;15.92;85.00
44044;BME280;29709;52.396;16.796;2022-10-16T04:06:55;101564.24;;;15.96;84.36
44044;BME280;29709;52.396;16.796;2022-10-16T04:09:58;101553.63;;;15.99;85.42
44044;BME280;29709;52.396;16.796;2022-10-16T04:13:01;101567.12;;;16.02;84.14
44044;BME280;29709;52.396;16.796;2022-10-16T04:16:30;101569.34;;;16.07;84.95
44044;BME280;29709;52.396;16.796;2022-10-16T04:19:33;101561.12;;;16.13;84.45
44044;BME280;29709;52.396;16.796;2022-10-16T04:22:36;101566.00;;;16.11;85.32
44044;BME280;29709;52.396;16.796;2022-10-16T04:25:39;101568.23;;;16.16;85.02
44044;BME280;29709;52.396;16.796;2022-10-16T04:28:42;101584.68;;;16.18;84.12
44044;BME280;29709;52.396;16.796;2022-10-16T04:31:46;101574.80;;;16.15;84.48
44044;BME280;29709;52.396;16.796;2022-10-16T04:34:49;101580.34;;;16.15;84.76
44044;BME280;29709;52.396;16.796;2022-10-16T04:37:52;101582.97;;;16.16;84.69
44044;BME280;29709;52.396;16.796;2022-10-16T04:40:55;101582.97;;;16.16;84.42
44044;BME280;29709;52.396;16.796;2022-10-16T04:43:58;101599.41;;;16.18;86.00
44044;BME280;29709;52.396;16.796;2022-10-16T04:47:01;101591.09;;;16.18;84.55
44044;BME280;29709;52.396;16.796;2022-10-16T04:50:29;101596.64;;;16.18;85.77
44044;BME280;29709;52.396;16.796;2022-10-16T04:53:32;101588.93;;;16.28;86.31
44044;BME280;29709;52.396;16.796;2022-10-16T04:56:36;101592.50;;;16.37;85.59
44044;BME280;29709;52.396;16.796;2022-10-16T04:59:49;101592.66;;;16.35;85.81
44044;BME280;29709;52.396;16.796;2022-10-16T05:02:53;101590.74;;;16.36;84.99
44044;BME280;29709;52.396;16.796;2022-10-16T05:05:56;101583.66;;;16.33;85.73
44044;BME280;29709;52.396;16.796;2022-10-16T05:08:59;101574.87;;;16.30;85.70
44044;BME280;29709;52.396;16.796;2022-10-16T05:12:02;101580.16;;;16.39;83.99
44044;BME280;29709;52.396;16.796;2022-10-16T05:15:06;101594.22;;;16.38;84.83
44044;BME280;29709;52.396;16.796;2022-10-16T05:18:34;101602.89;;;16.35;85.20
44044;BME280;29709;52.396;16.796;2022-10-16T05:21:37;101605.31;;;16.38;85.00
44044;BME280;29709;52.396;16.796;2022-10-16T05:24:40;101607.90;;;16.39;85.46
44044;BME280;29709;52.396;16.796;2022-10-16T05:27:49;101605.98;;;16.40;85.39
44044;BME280;29709;52.396;16.796;2022-10-16T05:30:52;101601.97;;;16.42;84.83
44044;BME280;29709;52.396;16.796;2022-10-16T05:34:01;101597.95;;;16.45;85.36
44044;BME280;29709;52.396;16.796;2022-10-16T05:37:04;101612.52;;;16.47;84.67
44044;BME280;29709;52.396;16.796;2022-10-16T05:40:09;101613.92;;;16.43;85.59
44044;BME280;29709;52.396;16.796;2022-10-16T05:43:38;101600.81;;;16.37;85.17
44044;BME280;29709;52.396;16.796;2022-10-16T05:46:40;101604.14;;;16.32;85.30
44044;BME280;29709;52.396;16.796;2022-10-16T05:49:43;101613.52;;;16.31;85.55
44044;BME280;29709;52.396;16.796;2022-10-16T05:52:46;101602.61;;;16.30;85.88
44044;BME280;29709;52.396;16.796;2022-10-16T05:55:53;101618.20;;;16.31;85.76
44044;BME280;29709;52.396;16.796;2022-10-16T05:58:56;101621.83;;;16.31;85.46
44044;BME280;29709;52.396;16.796;2022-10-16T06:01:59;101613.52;;;16.31;85.83
44044;BME280;29709;52.396;16.796;2022-10-16T06:05:02;101616.09;;;16.33;86.62
44044;BME280;29709;52.396;16.796;2022-10-16T06:08:05;101620.05;;;16.38;85.91
44044;BME280;29709;52.396;16.796;2022-10-16T06:11:10;101618.48;;;16.36;84.81
44044;BME280;29709;52.396;16.796;2022-10-16T06:14:38;101627.38;;;16.31;85.69
44044;BME280;29709;52.396;16.796;2022-10-16T06:17:41;101632.07;;;16.31;85.32
44044;BME280;29709;52.396;16.796;2022-10-16T06:20:44;101638.29;;;16.33;85.97
44044;BME280;29709;52.396;16.796;2022-10-16T06:23:47;101627.51;;;16.38;85.64
44044;BME280;29709;52.396;16.796;2022-10-16T06:26:51;101630.77;;;16.41;85.75
44044;BME280;29709;52.396;16.796;2022-10-16T06:29:53;101643.20;;;16.45;84.97
44044;BME280;29709;52.396;16.796;2022-10-16T06:32:56;101644.77;;;16.48;85.29
44044;BME280;29709;52.396;16.796;2022-10-16T06:36:02;101646.97;;;16.53;85.05
44044;BME280;29709;52.396;16.796;2022-10-16T06:39:05;101656.63;;;16.57;85.40
44044;BME280;29709;52.396;16.796;2022-10-16T06:42:09;101661.84;;;16.60;85.19
44044;BME280;29709;52.396;16.796;2022-10-16T06:45:38;101672.93;;;16.60;85.46
44044;BME280;29709;52.396;16.796;2022-10-16T06:48:40;101679.81;;;16.64;84.97
44044;BME280;29709;52.396;16.796;2022-10-16T06:51:43;101679.62;;;16.65;85.06
44044;BME280;29709;52.396;16.796;2022-10-16T06:54:46;101695.59;;;16.71;85.35
44044;BME280;29709;52.396;16.796;2022-10-16T06:57:49;101693.95;;;16.77;86.16
44044;BME280;29709;52.396;16.796;2022-10-16T07:00:55;101705.00;;;16.85;85.31
44044;BME280;29709;52.396;16.796;2022-10-16T07:04:00;101703.94;;;16.86;84.62
44044;BME280;29709;52.396;16.796;2022-10-16T07:07:05;101707.23;;;16.90;85.35
44044;BME280;29709;52.396;16.796;2022-10-16T07:10:08;101705.59;;;16.95;85.18
44044;BME280;29709;52.396;16.796;2022-10-16T07:13:43;101706.57;;;17.02;85.28
44044;BME280;29709;52.396;16.796;2022-10-16T07:16:47;101712.41;;;17.08;85.12
44044;BME280;29709;52.396;16.796;2022-10-16T07:19:50;101719.81;;;17.15;84.74
44044;BME280;29709;52.396;16.796;2022-10-16T07:22:55;101698.56;;;17.22;84.15
44044;BME280;29709;52.396;16.796;2022-10-16T07:25:58;101698.17;;;17.25;84.36
44044;BME280;29709;52.396;16.796;2022-10-16T07:29:03;101703.65;;;17.34;84.26
44044;BME280;29709;52.396;16.796;2022-10-16T07:32:09;101702.70;;;17.41;84.31
44044;BME280;29709;52.396;16.796;2022-10-16T07:35:14;101700.66;;;17.50;84.07
44044;BME280;29709;52.396;16.796;2022-10-16T07:38:47;101693.68;;;17.54;83.85
44044;BME280;29709;52.396;16.796;2022-10-16T07:41:50;101700.96;;;17.55;83.82
44044;BME280;29709;52.396;16.796;2022-10-16T07:44:54;101702.29;;;17.59;83.52
44044;BME280;29709;52.396;16.796;2022-10-16T07:47:59;101706.89;;;17.67;83.19
44044;BME280;29709;52.396;16.796;2022-10-16T07:51:06;101713.52;;;17.66;82.87
44044;BME280;29709;52.396;16.796;2022-10-16T07:54:09;101721.94;;;17.57;82.83
44044;BME280;29709;52.396;16.796;2022-10-16T07:57:14;101724.26;;;17.54;83.05
44044;BME280;29709;52.396;16.796;2022-10-16T08:00:22;101724.73;;;17.57;83.19
44044;BME280;29709;52.396;16.796;2022-10-16T08:03:52;101731.81;;;17.60;82.84
44044;BME280;29709;52.396;16.796;2022-10-16T08:06:55;101736.51;;;17.59;83.10
44044;BME280;29709;52.396;16.796;2022-10-16T08:09:59;101740.92;;;17.69;83.01
44044;BME280;29709;52.396;16.796;2022-10-16T08:13:04;101741.05;;;17.75;82.71
44044;BME280;29709;52.396;16.796;2022-10-16T08:16:09;101745.37;;;17.78;82.70
44044;BME280;29709;52.396;16.796;2022-10-16T08:19:14;101740.84;;;17.92;82.54
44044;BME280;29709;52.396;16.796;2022-10-16T08:22:20;101750.80;;;18.01;82.19
44044;BME280;29709;52.396;16.796;2022-10-16T08:25:25;101745.59;;;18.12;81.69
44044;BME280;29709;52.396;16.796;2022-10-16T08:28:58;101747.34;;;18.13;81.81
44044;BME280;29709;52.396;16.796;2022-10-16T08:32:03;101736.28;;;18.20;81.79
44044;BME280;29709;52.396;16.796;2022-10-16T08:35:07;101749.02;;;18.29;81.01
44044;BME280;29709;52.396;16.796;2022-10-16T08:38:10;101753.41;;;18.38;81.06
44044;BME280;29709;52.396;16.796;2022-10-16T08:48:23;101763.34;;;18.84;79.83
44044;BME280;29709;52.396;16.796;2022-10-16T08:51:34;101763.94;;;19.00;79.00
44044;BME280;29709;52.396;16.796;2022-10-16T08:54:42;101771.55;;;19.13;78.90
44044;BME280;29709;52.396;16.796;2022-10-16T08:57:46;101765.62;;;19.23;78.95
44044;BME280;29709;52.396;16.796;2022-10-16T09:01:04;101770.73;;;19.47;78.73
44044;BME280;29709;52.396;16.796;2022-10-16T09:11:02;101772.37;;;19.98;75.30
44044;BME280;29709;52.396;16.796;2022-10-16T09:21:14;101773.59;;;20.23;75.04
44044;BME280;29709;52.396;16.796;2022-10-16T09:24:22;101769.30;;;20.27;74.62
44044;BME280;29709;52.396;16.796;2022-10-16T09:27:26;101781.32;;;20.28;75.34
44044;BME280;29709;52.396;16.796;2022-10-16T09:30:29;101783.29;;;20.34;74.92
44044;BME280;29709;52.396;16.796;2022-10-16T09:33:37;101788.01;;;20.33;73.64
44044;BME280;29709;52.396;16.796;2022-10-16T09:37:13;101786.73;;;20.36;74.38
44044;BME280;29709;52.396;16.796;2022-10-16T09:40:34;101786.48;;;20.31;73.00
44044;BME280;29709;52.396;16.796;2022-10-16T09:43:39;101783.07;;;20.35;73.80
44044;BME280;29709;52.396;16.796;2022-10-16T09:46:43;101774.16;;;20.53;74.04
44044;BME280;29709;52.396;16.796;2022-10-16T09:49:53;101787.29;;;20.66;73.13
44044;BME280;29709;52.396;16.796;2022-10-16T09:53:07;101783.69;;;20.85;73.53
44044;BME280;29709;52.396;16.796;2022-10-16T09:56:20;101787.55;;;21.04;72.79
44044;BME280;29709;52.396;16.796;2022-10-16T09:59:21;101788.86;;;21.08;72.43
44044;BME280;29709;52.396;16.796;2022-10-16T10:02:34;101791.02;;;21.06;71.76
44044;BME280;29709;52.396;16.796;2022-10-16T10:05:39;101793.13;;;21.04;71.72
44044;BME280;29709;52.396;16.796;2022-10-16T10:12:00;101785.67;;;21.31;72.06
44044;BME280;29709;52.396;16.796;2022-10-16T10:15:10;101786.93;;;21.55;70.31
44044;BME280;29709;52.396;16.796;2022-10-16T10:18:18;101792.73;;;21.67;70.06
44044;BME280;29709;52.396;16.796;2022-10-16T10:21:24;101795.74;;;21.65;69.44
44044;BME280;29709;52.396;16.796;2022-10-16T10:34:51;101796.00;;;21.30;70.22
44044;BME280;29709;52.396;16.796;2022-10-16T10:38:04;101792.79;;;21.27;70.16
44044;BME280;29709;52.396;16.796;2022-10-16T10:51:01;101798.06;;;21.88;68.31
44044;BME280;29709;52.396;16.796;2022-10-16T10:57:30;101798.70;;;21.97;68.45
44044;BME280;29709;52.396;16.796;2022-10-16T11:01:06;101789.88;;;21.86;68.31
44044;BME280;29709;52.396;16.796;2022-10-16T11:07:20;101795.36;;;21.48;68.90
44044;BME280;29709;52.396;16.796;2022-10-16T11:10:30;101788.66;;;21.56;69.01
44044;BME280;29709;52.396;16.796;2022-10-16T11:16:57;101788.16;;;21.92;68.85
44044;BME280;29709;52.396;16.796;2022-10-16T11:20:13;101780.80;;;22.04;68.29
44044;BME280;29709;52.396;16.796;2022-10-16T11:23:25;101773.92;;;22.13;68.04
44044;BME280;29709;52.396;16.796;2022-10-16T11:26:34;101773.45;;;22.23;67.27
44044;BME280;29709;52.396;16.796;2022-10-16T11:29:45;101782.02;;;22.28;66.64
44044;BME280;29709;52.396;16.796;2022-10-16T11:39:28;101780.55;;;22.26;65.76
44044;BME280;29709;52.396;16.796;2022-10-16T11:42:40;101792.15;;;22.29;65.82
44044;BME280;29709;52.396;16.796;2022-10-16T11:45:49;101790.48;;;22.22;65.56
44044;BME280;29709;52.396;16.796;2022-10-16T11:49:21;101786.43;;;22.11;65.62
44044;BME280;29709;52.396;16.796;2022-10-16T11:52:17;101790.09;;;22.11;66.25
44044;BME280;29709;52.396;16.796;2022-10-16T11:55:23;101796.96;;;22.09;65.94
44044;BME280;29709;52.396;16.796;2022-10-16T12:08:19;101796.70;;;22.30;65.75
44044;BME280;29709;52.396;16.796;2022-10-16T12:11:48;101795.80;;;22.30;65.27
44044;BME280;29709;52.396;16.796;2022-10-16T12:15:01;101803.39;;;22.23;64.92
44044;BME280;29709;52.396;16.796;2022-10-16T12:18:07;101794.37;;;22.21;64.68
44044;BME280;29709;52.396;16.796;2022-10-16T12:21:21;101797.12;;;22.27;64.40
44044;BME280;29709;52.396;16.796;2022-10-16T12:24:36;101796.04;;;22.28;63.31
44044;BME280;29709;52.396;16.796;2022-10-16T12:27:40;101803.58;;;22.28;62.81
44044;BME280;29709;52.396;16.796;2022-10-16T12:31:09;101812.48;;;22.11;62.40
44044;BME280;29709;52.396;16.796;2022-10-16T12:37:36;101814.20;;;22.12;62.01
44044;BME280;29709;52.396;16.796;2022-10-16T12:40:42;101822.78;;;22.17;62.11
44044;BME280;29709;52.396;16.796;2022-10-16T12:43:47;101813.74;;;22.22;62.23
44044;BME280;29709;52.396;16.796;2022-10-16T12:46:50;101804.82;;;22.38;62.02
44044;BME280;29709;52.396;16.796;2022-10-16T12:53:35;101802.28;;;22.75;61.69
44044;BME280;29709;52.396;16.796;2022-10-16T12:56:48;101808.68;;;22.82;60.90
44044;BME280;29709;52.396;16.796;2022-10-16T13:03:21;101821.47;;;22.71;60.75
44044;BME280;29709;52.396;16.796;2022-10-16T13:06:33;101829.47;;;22.68;61.73
44044;BME280;29709;52.396;16.796;2022-10-16T13:19:29;101835.62;;;22.45;62.50
44044;BME280;29709;52.396;16.796;2022-10-16T13:26:07;101839.27;;;22.45;62.59
44044;BME280;29709;52.396;16.796;2022-10-16T13:29:08;101844.43;;;22.48;63.08
44044;BME280;29709;52.396;16.796;2022-10-16T13:32:37;101837.16;;;22.41;62.46
44044;BME280;29709;52.396;16.796;2022-10-16T13:35:51;101850.07;;;22.42;62.72
44044;BME280;29709;52.396;16.796;2022-10-16T13:45:24;101853.43;;;22.64;62.88
44044;BME280;29709;52.396;16.796;2022-10-16T13:48:31;101858.40;;;22.62;62.29
44044;BME280;29709;52.396;16.796;2022-10-16T13:52:00;101868.55;;;22.50;62.38
44044;BME280;29709;52.396;16.796;2022-10-16T13:55:04;101880.84;;;22.48;62.16
44044;BME280;29709;52.396;16.796;2022-10-16T13:58:13;101878.95;;;22.42;62.00
44044;BME280;29709;52.396;16.796;2022-10-16T14:01:20;101884.77;;;22.41;61.42
44044;BME280;29709;52.396;16.796;2022-10-16T14:04:29;101893.41;;;22.33;61.83
44044;BME280;29709;52.396;16.796;2022-10-16T14:07:34;101898.79;;;22.28;61.22
44044;BME280;29709;52.396;16.796;2022-10-16T14:10:38;101900.10;;;22.25;60.74
44044;BME280;29709;52.396;16.796;2022-10-16T14:14:11;101905.92;;;22.30;61.95
44044;BME280;29709;52.396;16.796;2022-10-16T14:17:16;101903.75;;;22.32;61.74
44044;BME280;29709;52.396;16.796;2022-10-16T14:20:26;101904.62;;;22.33;62.07
44044;BME280;29709;52.396;16.796;2022-10-16T14:23:32;101907.19;;;22.28;61.52
44044;BME280;29709;52.396;16.796;2022-10-16T14:26:41;101902.49;;;22.22;61.75
44044;BME280;29709;52.396;16.796;2022-10-16T14:29:45;101900.55;;;22.15;62.15
44044;BME280;29709;52.396;16.796;2022-10-16T14:32:58;101903.80;;;22.12;62.23
44044;BME280;29709;52.396;16.796;2022-10-16T14:36:13;101911.30;;;22.05;62.45
44044;BME280;29709;52.396;16.796;2022-10-16T14:39:22;101915.17;;;22.04;61.83
44044;BME280;29709;52.396;16.796;2022-10-16T14:42:26;101915.17;;;22.04;62.27
44044;BME280;29709;52.396;16.796;2022-10-16T14:45:56;101927.23;;;21.98;61.68
44044;BME280;29709;52.396;16.796;2022-10-16T14:49:14;101929.61;;;21.95;61.88
44044;BME280;29709;52.396;16.796;2022-10-16T14:52:12;101925.54;;;21.90;61.87
44044;BME280;29709;52.396;16.796;2022-10-16T14:55:16;101926.39;;;21.84;61.85
44044;BME280;29709;52.396;16.796;2022-10-16T14:58:21;101925.12;;;21.80;62.08
44044;BME280;29709;52.396;16.796;2022-10-16T15:01:25;101929.17;;;21.78;61.74
44044;BME280;29709;52.396;16.796;2022-10-16T15:04:28;101925.32;;;21.72;61.90
44044;BME280;29709;52.396;16.796;2022-10-16T15:07:32;101934.78;;;21.65;62.42
44044;BME280;29709;52.396;16.796;2022-10-16T15:11:00;101941.42;;;21.57;62.62
44044;BME280;29709;52.396;16.796;2022-10-16T15:14:03;101940.37;;;21.51;62.85
44044;BME280;29709;52.396;16.796;2022-10-16T15:17:09;101950.27;;;21.47;63.10
44044;BME280;29709;52.396;16.796;2022-10-16T15:20:13;101954.54;;;21.43;62.76
44044;BME280;29709;52.396;16.796;2022-10-16T15:23:20;101955.20;;;21.39;63.35
44044;BME280;29709;52.396;16.796;2022-10-16T15:26:25;101955.16;;;21.32;62.81
44044;BME280;29709;52.396;16.796;2022-10-16T15:29:28;101943.91;;;21.25;63.39
44044;BME280;29709;52.396;16.796;2022-10-16T15:32:31;101953.16;;;21.19;63.30
44044;BME280;29709;52.396;16.796;2022-10-16T15:36:03;101957.66;;;21.07;63.81
44044;BME280;29709;52.396;16.796;2022-10-16T15:39:14;101948.16;;;21.01;63.94
44044;BME280;29709;52.396;16.796;2022-10-16T15:42:17;101953.53;;;20.96;63.91
44044;BME280;29709;52.396;16.796;2022-10-16T15:45:20;101958.86;;;20.85;64.29
44044;BME280;29709;52.396;16.796;2022-10-16T15:48:23;101958.16;;;20.76;64.81
44044;BME280;29709;52.396;16.796;2022-10-16T15:51:26;101973.60;;;20.72;64.92
44044;BME280;29709;52.396;16.796;2022-10-16T15:54:36;101974.67;;;20.71;65.51
44044;BME280;29709;52.396;16.796;2022-10-16T15:57:39;101981.97;;;20.65;65.32
44044;BME280;29709;52.396;16.796;2022-10-16T16:01:10;101980.41;;;20.56;65.56
44044;BME280;29709;52.396;16.796;2022-10-16T16:04:14;101982.62;;;20.39;65.99
44044;BME280;29709;52.396;16.796;2022-10-16T16:07:19;101990.91;;;20.26;66.76
44044;BME280;29709;52.396;16.796;2022-10-16T16:10:22;101990.84;;;20.19;66.59
44044;BME280;29709;52.396;16.796;2022-10-16T16:13:25;102003.05;;;20.12;66.78
44044;BME280;29709;52.396;16.796;2022-10-16T16:16:28;101999.01;;;19.93;67.27
44044;BME280;29709;52.396;16.796;2022-10-16T16:19:34;102010.92;;;19.80;67.66
44044;BME280;29709;52.396;16.796;2022-10-16T16:22:37;102016.30;;;19.60;68.71
44044;BME280;29709;52.396;16.796;2022-10-16T16:25:40;102018.62;;;19.42;68.97
44044;BME280;29709;52.396;16.796;2022-10-16T16:28:43;102017.62;;;19.28;69.30
44044;BME280;29709;52.396;16.796;2022-10-16T16:32:11;102034.45;;;19.20;69.44
44044;BME280;29709;52.396;16.796;2022-10-16T16:35:18;102025.23;;;19.05;69.83
44044;BME280;29709;52.396;16.796;2022-10-16T16:38:22;102031.79;;;18.83;70.02
44044;BME280;29709;52.396;16.796;2022-10-16T16:41:27;102040.44;;;18.73;71.24
44044;BME280;29709;52.396;16.796;2022-10-16T16:44:30;102049.19;;;18.70;71.45
44044;BME280;29709;52.396;16.796;2022-10-16T16:47:33;102059.16;;;18.64;71.96
44044;BME280;29709;52.396;16.796;2022-10-16T16:50:42;102073.07;;;18.64;71.48
44044;BME280;29709;52.396;16.796;2022-10-16T16:53:47;102061.63;;;18.59;70.58
44044;BME280;29709;52.396;16.796;2022-10-16T16:57:19;102076.55;;;18.29;71.89
44044;BME280;29709;52.396;16.796;2022-10-16T17:00:22;102080.62;;;18.03;72.17
44044;BME280;29709;52.396;16.796;2022-10-16T17:03:26;102093.28;;;17.83;72.22
44044;BME280;29709;52.396;16.796;2022-10-16T17:06:29;102096.50;;;17.64;72.37
44044;BME280;29709;52.396;16.796;2022-10-16T17:09:32;102096.21;;;17.50;72.92
44044;BME280;29709;52.396;16.796;2022-10-16T17:12:35;102105.70;;;17.33;74.85
44044;BME280;29709;52.396;16.796;2022-10-16T17:15:46;102107.85;;;17.15;75.51
44044;BME280;29709;52.396;16.796;2022-10-16T17:18:50;102107.20;;;17.05;75.94
44044;BME280;29709;52.396;16.796;2022-10-16T17:21:55;102118.65;;;17.10;75.98
44044;BME280;29709;52.396;16.796;2022-10-16T17:25:23;102129.98;;;17.00;75.15
44044;BME280;29709;52.396;16.796;2022-10-16T17:28:37;102128.27;;;16.83;76.29
44044;BME280;29709;52.396;16.796;2022-10-16T17:31:46;102129.33;;;16.73;75.97
44044;BME280;29709;52.396;16.796;2022-10-16T17:34:51;102135.03;;;16.64;77.61
44044;BME280;29709;52.396;16.796;2022-10-16T17:37:54;102139.58;;;16.49;76.58
44044;BME280;29709;52.396;16.796;2022-10-16T17:40:58;102130.56;;;16.38;76.46
44044;BME280;29709;52.396;16.796;2022-10-16T17:44:01;102138.02;;;16.38;76.39
44044;BME280;29709;52.396;16.796;2022-10-16T17:47:30;102149.29;;;16.28;76.50
44044;BME280;29709;52.396;16.796;2022-10-16T17:50:33;102154.84;;;16.28;77.98
44044;BME280;29709;52.396;16.796;2022-10-16T17:53:37;102147.02;;;16.24;77.00
44044;BME280;29709;52.396;16.796;2022-10-16T17:56:40;102150.48;;;16.09;77.86
44044;BME280;29709;52.396;16.796;2022-10-16T17:59:43;102153.77;;;15.97;77.21
44044;BME280;29709;52.396;16.796;2022-10-16T18:02:49;102159.49;;;15.95;78.11
44044;BME280;29709;52.396;16.796;2022-10-16T18:05:54;102157.92;;;16.01;77.99
44044;BME280;29709;52.396;16.796;2022-10-16T18:12:36;102173.71;;;16.08;76.79
44044;BME280;29709;52.396;16.796;2022-10-16T18:15:39;102180.11;;;16.01;76.78
44044;BME280;29709;52.396;16.796;2022-10-16T18:18:43;102180.80;;;15.95;77.20